SV2RIM-2 Weather Reports


time (UTC)temp
F
wind
direction
speed
knots
gust
knots
rain 1hr
in
rain 24hr
in
rain mn
in
humidity
%
barometer
mb
20230128000020 39 258 4.3 11.3 0.00 0.09 0.00 67 1007.8
20230127235038 38 251 4.3 10.4 0.00 0.09 0.00 68 1007.8
20230127234017 38 307 3.5 8.7 0.00 0.09 0.00 68 1007.7
20230127233017 38 326 3.5 11.3 0.00 0.09 0.00 68 1007.7
20230127232017 39 299 2.6 7.8 0.00 0.09 0.00 68 1007.6
20230127231037 39 259 4.3 9.6 0.00 0.09 0.00 68 1007.6
20230127230017 39 271 2.6 6.1 0.00 0.09 0.00 69 1007.7
20230127225017 39 316 2.6 6.1 0.00 0.09 0.00 68 1007.7
20230127224017 39 306 1.7 4.3 0.00 0.09 0.00 68 1007.6
20230127223037 39 305 2.6 10.4 0.00 0.09 0.00 69 1007.6
20230127222017 39 285 1.7 5.2 0.00 0.09 0.00 68 1007.6
20230127221023 39 251 2.6 7.0 0.00 0.09 0.00 68 1007.6
20230127220018 39 249 3.5 6.1 0.00 0.09 0.00 68 1007.5
20230127215038 39 334 3.5 9.6 0.00 0.09 0.09 70 1007.4
20230127214017 39 308 3.5 8.7 0.00 0.09 0.09 69 1007.4
20230127213017 39 242 1.7 6.1 0.00 0.09 0.09 70 1007.4
20230127212016 39 267 1.7 4.3 0.00 0.09 0.09 70 1007.4
20230127211017 38 335 0.9 2.6 0.01 0.09 0.09 70 1007.3
20230127210017 38 255 0.9 6.1 0.01 0.09 0.09 70 1007.2
20230127205018 38 247 2.6 5.2 0.01 0.09 0.09 70 1007.1
20230127204018 39 317 2.6 6.1 0.01 0.09 0.09 71 1007.0
20230127203017 39 336 1.7 6.1 0.01 0.09 0.09 70 1006.9
20230127202017 39 298 2.6 6.1 0.01 0.09 0.09 70 1006.9
20230127201017 39 331 2.6 8.7 0.00 0.08 0.08 71 1006.8
20230127200017 39 322 2.6 7.8 0.00 0.08 0.08 72 1006.8
20230127195017 39 332 0.9 2.6 0.00 0.08 0.08 72 1006.8
20230127194017 39 348 1.7 3.5 0.00 0.08 0.08 72 1006.7
20230127193017 38 342 2.6 5.2 0.00 0.08 0.08 73 1006.6
20230127192018 38 334 1.7 5.2 0.00 0.08 0.08 74 1006.6
20230127191017 38 349 2.6 6.1 0.00 0.08 0.08 74 1006.5
20230127190037 37 339 1.7 5.2 0.00 0.08 0.08 75 1006.5
20230127185017 37 324 1.7 5.2 0.00 0.08 0.08 77 1006.5
20230127184017 37 346 2.6 5.2 0.00 0.08 0.08 77 1006.5
20230127183017 37 329 1.7 4.3 0.00 0.08 0.08 78 1006.4
20230127182017 38 320 1.7 3.5 0.00 0.08 0.08 77 1006.4
20230127181018 38 328 1.7 3.5 0.00 0.08 0.08 78 1006.4
20230127180037 38 340 0.9 3.5 0.00 0.08 0.08 79 1006.4
20230127175037 39 346 1.7 3.5 0.00 0.08 0.08 79 1006.3
20230127174017 39 336 0.9 2.6 0.00 0.09 0.08 79 1006.3
20230127173018 39 333 0.9 2.6 0.00 0.09 0.08 80 1006.3
20230127172017 40 327 1.7 3.5 0.00 0.09 0.08 81 1006.2
20230127171017 41 239 0.9 1.7 0.00 0.09 0.08 79 1006.1
20230127170038 41 199 0.9 2.6 0.00 0.09 0.08 78 1006.0
20230127165057 41 235 0.0 0.9 0.00 0.09 0.08 77 1005.9
20230127164037 42 224 0.9 1.7 0.00 0.09 0.08 77 1005.8
20230127163037 42 250 1.7 3.5 0.00 0.09 0.08 77 1005.6
20230127162037 42 332 1.7 4.3 0.00 0.09 0.08 79 1005.4
20230127161017 42 317 1.7 4.3 0.00 0.09 0.08 80 1005.3
20230127160017 43 326 1.7 3.5 0.03 0.09 0.08 81 1005.3
20230127155016 44 335 1.7 3.5 0.03 0.09 0.08 82 1005.2
20230127154017 44 342 1.7 4.3 0.03 0.09 0.08 84 1005.1
20230127153016 46 330 0.0 2.6 0.04 0.09 0.08 84 1005.1
20230127152017 47 238 0.0 0.9 0.04 0.09 0.08 84 1004.9
20230127151037 48 263 0.0 0.9 0.04 0.09 0.08 83 1004.8
20230127150018 48 249 0.0 0.9 0.01 0.05 0.04 82 1004.8
20230127145017 50 216 0.0 1.7 0.01 0.05 0.04 79 1004.7
20230127144057 49 233 0.0 0.9 0.01 0.05 0.04 82 1004.7
20230127143017 48 240 0.0 0.9 0.00 0.04 0.03 83 1004.6
20230127142038 48 197 0.9 2.6 0.00 0.04 0.03 84 1004.6
20230127141017 49 223 0.0 0.9 0.00 0.04 0.03 83 1004.4
20230127140017 48 245 0.0 1.7 0.00 0.04 0.03 84 1004.3
20230127135017 48 209 0.9 1.7 0.00 0.04 0.03 86 1004.3
20230127134017 49 331 0.0 1.7 0.00 0.04 0.03 86 1004.2
20230127133017 50 249 0.0 1.7 0.00 0.04 0.03 85 1004.1
20230127132017 49 269 0.9 1.7 0.01 0.04 0.03 87 1003.9
20230127131017 50 238 0.9 1.7 0.01 0.04 0.03 86 1003.9
20230127130017 50 230 0.9 1.7 0.01 0.04 0.03 84 1003.9
20230127125017 49 204 0.9 2.6 0.01 0.04 0.03 86 1003.9
20230127124038 49 205 0.9 2.6 0.02 0.04 0.03 88 1004.0
20230127123017 49 211 0.9 1.7 0.02 0.04 0.03 88 1004.0
20230127122018 49 250 0.0 2.6 0.01 0.03 0.02 90 1004.0
20230127121017 50 252 0.9 1.7 0.01 0.03 0.02 91 1003.9
20230127120017 50 315 0.9 2.6 0.01 0.03 0.02 94 1003.9
20230127115017 52 266 0.9 2.6 0.01 0.03 0.02 90 1003.9
20230127114017 49 268 0.9 3.5 0.00 0.02 0.01 90 1004.0
20230127113017 49 290 0.9 2.6 0.00 0.02 0.01 90 1003.9
20230127112017 48 296 0.9 2.6 0.00 0.03 0.01 92 1004.1
20230127111017 47 273 0.9 1.7 0.00 0.03 0.01 95 1004.2
20230127110017 48 269 0.9 1.7 0.00 0.03 0.01 98 1004.3
20230127105017 50 301 0.9 1.7 0.00 0.03 0.01 100 1004.5
20230127104020 53 280 0.0 0.9 0.00 0.03 0.01 97 1004.5
20230127103017 49 242 1.7 5.2 0.00 0.03 0.01 95 1004.6
20230127102037 51 255 1.7 4.3 0.00 0.03 0.01 93 1004.7
20230127101017 49 241 2.6 7.0 0.00 0.05 0.01 92 1004.8
20230127100017 47 251 2.6 6.1 0.00 0.05 0.01 90 1004.8
20230127095017 49 242 1.7 4.3 0.00 0.07 0.01 84 1005.0
20230127094017 52 253 0.9 4.3 0.00 0.07 0.01 73 1005.1
20230127093017 49 227 0.0 1.7 0.00 0.09 0.01 75 1005.2
20230127092017 45 200 0.9 3.5 0.00 0.09 0.01 83 1005.3
20230127091017 45 200 0.9 2.6 0.00 0.10 0.01 82 1005.4
20230127090020 47 205 0.9 3.5 0.00 0.10 0.01 76 1005.3
20230127085017 45 191 0.9 2.6 0.00 0.10 0.01 80 1005.3
20230127084017 44 201 0.9 1.7 0.00 0.11 0.01 82 1005.4
20230127083017 44 221 0.9 1.7 0.00 0.12 0.01 80 1005.4
20230127082017 43 243 1.7 4.3 0.00 0.12 0.01 80 1005.4
20230127081017 42 248 1.7 4.3 0.00 0.12 0.01 79 1005.5
20230127080017 42 247 2.6 6.1 0.00 0.13 0.01 80 1005.6
20230127075017 41 246 2.6 7.0 0.00 0.13 0.01 80 1005.6
20230127074017 41 250 2.6 7.0 0.00 0.15 0.01 81 1005.5
20230127073017 41 324 2.6 5.2 0.00 0.15 0.01 80 1005.4
20230127072017 41 272 2.6 7.0 0.00 0.15 0.01 81 1005.4
20230127071037 40 315 2.6 7.0 0.01 0.17 0.01 81 1005.3
20230127070017 40 316 3.5 7.8 0.01 0.17 0.01 81 1005.5
20230127065018 40 316 3.5 8.7 0.01 0.18 0.01 81 1005.5
20230127064017 39 320 3.5 7.0 0.01 0.18 0.01 82 1005.4
20230127063017 39 322 3.5 7.0 0.01 0.18 0.01 83 1005.5
20230127062037 39 301 2.6 5.2 0.01 0.18 0.01 84 1005.6
20230127061017 39 337 1.7 5.2 0.00 0.17 0.00 84 1005.6
20230127060018 39 316 1.7 5.2 0.00 0.17 0.00 86 1005.7
20230127055017 39 335 0.9 3.5 0.00 0.17 0.00 87 1005.6
20230127054017 38 335 0.9 1.7 0.00 0.17 0.00 87 1005.7
20230127053037 38 230 0.0 0.9 0.00 0.17 0.00 88 1005.7
20230127052018 38 267 0.0 1.7 0.00 0.17 0.00 88 1005.7
20230127051037 38 0.0 0.0 0.00 0.17 0.00 87 1005.7
20230127050057 39 246 0.0 0.0 0.00 0.17 0.00 85 1005.6
20230127045017 39 202 0.0 1.7 0.00 0.17 0.00 85 1005.4
20230127044017 39 232 0.0 0.9 0.00 0.17 0.00 84 1005.2
20230127043017 40 195 0.9 2.6 0.00 0.17 0.00 83 1005.1
20230127042017 40 226 0.9 1.7 0.00 0.17 0.00 83 1005.0
20230127041017 40 183 0.9 2.6 0.00 0.17 0.00 81 1004.9
20230127040017 40 319 0.9 3.5 0.00 0.17 0.00 81 1004.7
20230127035017 40 335 2.6 6.1 0.00 0.17 0.00 81 1004.5
20230127034037 40 326 3.5 9.6 0.00 0.17 0.00 81 1004.4
20230127033017 40 323 4.3 7.8 0.00 0.17 0.00 80 1004.3
20230127032037 40 302 3.5 8.7 0.00 0.18 0.00 80 1004.2
20230127031017 40 305 4.3 9.6 0.00 0.19 0.00 81 1004.3
20230127030017 39 334 4.3 10.4 0.00 0.19 0.00 82 1004.6
20230127025017 39 329 3.5 8.7 0.00 0.20 0.00 83 1004.8
20230127024017 39 343 1.7 3.5 0.00 0.21 0.00 83 1005.1
20230127023017 40 343 1.7 3.5 0.00 0.23 0.00 83 1005.2
20230127022017 40 287 0.9 3.5 0.00 0.23 0.00 83 1005.3
20230127021017 39 334 0.9 3.5 0.00 0.24 0.00 84 1005.3
20230127020017 39 300 0.9 2.6 0.00 0.24 0.00 83 1005.6
20230127015017 39 298 0.0 0.9 0.00 0.25 0.00 83 1005.8
20230127014017 39 344 1.7 3.5 0.00 0.25 0.00 83 1005.9
20230127013017 39 312 1.7 4.3 0.00 0.26 0.00 83 1006.0
20230127012017 39 309 1.7 3.5 0.00 0.26 0.00 83 1006.0
20230127011017 39 301 0.9 2.6 0.00 0.26 0.00 83 1006.0
20230127010017 39 342 1.7 4.3 0.00 0.26 0.00 82 1005.9
20230127005017 39 249 1.7 4.3 0.00 0.29 0.00 81 1005.9
20230127004017 39 292 0.9 3.5 0.00 0.29 0.00 80 1005.9
20230127003037 38 243 2.6 7.0 0.00 0.29 0.00 81 1005.9
20230127002017 39 281 2.6 6.1 0.00 0.31 0.00 82 1006.0
20230127001017 39 317 2.6 6.1 0.00 0.31 0.00 82 1006.1